createdAt,value
2023-04-09T00:00:57.933Z,7406.00
2023-04-09T00:01:58.006Z,7490.00
2023-04-09T00:02:58.117Z,7326.00
2023-04-09T00:03:58.253Z,7349.00
2023-04-09T00:04:58.136Z,7379.00
2023-04-09T00:05:58.173Z,7483.00
2023-04-09T00:06:58.225Z,7635.00
2023-04-09T00:07:58.275Z,7535.00
2023-04-09T00:08:58.334Z,7423.00
2023-04-09T00:09:58.401Z,7256.00
2023-04-09T00:10:58.436Z,7038.00
2023-04-09T00:11:58.496Z,6900.00
2023-04-09T00:12:58.550Z,6781.00
2023-04-09T00:13:58.629Z,6671.00
2023-04-09T00:14:58.671Z,6670.00
2023-04-09T00:15:58.760Z,6725.00
2023-04-09T00:16:58.814Z,6874.00
2023-04-09T00:17:58.937Z,6925.00
2023-04-09T00:18:58.926Z,6888.00
2023-04-09T00:19:58.990Z,6835.00
2023-04-09T00:20:59.053Z,6817.00
2023-04-09T00:21:59.075Z,6776.00
2023-04-09T00:22:59.146Z,6642.00
2023-04-09T00:23:59.208Z,6464.00
2023-04-09T00:24:59.250Z,6347.00
2023-04-09T00:25:59.305Z,6273.00
2023-04-09T00:26:59.378Z,6241.00
2023-04-09T00:27:59.415Z,6268.00
2023-04-09T00:28:59.486Z,6311.00
2023-04-09T00:29:59.546Z,6380.00
2023-04-09T00:30:59.608Z,6478.00
2023-04-09T00:31:59.735Z,6592.00
2023-04-09T00:32:59.752Z,6626.00
2023-04-09T00:33:59.827Z,6712.00
2023-04-09T00:34:59.843Z,6705.00
2023-04-09T00:35:59.902Z,6681.00
2023-04-09T00:36:59.963Z,6671.00
2023-04-09T00:37:59.984Z,6653.00
2023-04-09T00:39:00.054Z,6619.00
2023-04-09T00:40:00.105Z,6620.00
2023-04-09T00:41:00.155Z,6604.00
2023-04-09T00:42:00.238Z,6647.00
2023-04-09T00:43:00.255Z,6682.00
2023-04-09T00:44:00.304Z,6818.00
2023-04-09T00:45:00.394Z,6942.00
2023-04-09T00:46:00.499Z,6968.00
2023-04-09T00:47:00.473Z,6971.00
2023-04-09T00:48:00.591Z,6961.00
2023-04-09T00:49:00.581Z,6894.00
2023-04-09T00:50:00.655Z,6877.00
2023-04-09T00:51:00.684Z,6974.00
2023-04-09T00:52:00.721Z,7014.00
2023-04-09T00:53:00.776Z,6995.00
2023-04-09T00:54:00.816Z,6907.00
2023-04-09T00:55:00.851Z,6850.00
2023-04-09T00:56:00.915Z,6921.00
2023-04-09T00:57:01.008Z,7183.00
2023-04-09T00:58:01.042Z,7326.00
2023-04-09T00:59:01.104Z,7276.00
2023-04-09T01:00:01.096Z,7157.00
2023-04-09T01:01:01.158Z,7060.00
2023-04-09T01:02:01.212Z,6988.00
2023-04-09T01:03:01.279Z,6920.00
2023-04-09T01:04:01.256Z,6836.00
2023-04-09T01:05:01.244Z,6791.00
2023-04-09T01:06:01.256Z,6720.00
2023-04-09T01:07:01.339Z,6666.00
2023-04-09T01:08:01.321Z,6707.00
2023-04-09T01:09:01.321Z,6697.00
2023-04-09T01:10:01.276Z,6636.00
2023-04-09T01:11:01.291Z,6601.00
2023-04-09T01:12:01.319Z,6614.00
2023-04-09T01:13:01.325Z,6715.00
2023-04-09T01:14:01.312Z,6861.00
2023-04-09T01:15:01.306Z,6980.00
2023-04-09T01:16:01.288Z,6973.00
2023-04-09T01:17:01.295Z,6923.00
2023-04-09T01:18:01.339Z,6921.00
2023-04-09T01:19:01.304Z,6903.00
2023-04-09T01:20:01.318Z,6954.00
2023-04-09T01:21:01.336Z,6954.00
2023-04-09T01:22:01.341Z,6833.00
2023-04-09T01:23:01.327Z,6732.00
2023-04-09T01:24:01.332Z,6686.00
2023-04-09T01:25:01.344Z,6651.00
2023-04-09T01:26:01.334Z,6646.00
2023-04-09T01:27:01.333Z,6705.00
2023-04-09T01:28:01.372Z,6665.00
2023-04-09T01:29:01.381Z,6809.00
2023-04-09T01:30:01.375Z,6992.00
2023-04-09T01:31:01.370Z,7074.00
2023-04-09T01:32:01.348Z,7219.00
2023-04-09T01:33:01.371Z,7349.00
2023-04-09T01:34:01.366Z,7413.00
2023-04-09T01:35:01.391Z,7542.00
2023-04-09T01:36:01.417Z,7522.00
2023-04-09T01:37:01.391Z,7387.00
2023-04-09T01:38:01.420Z,7170.00
2023-04-09T01:39:01.404Z,7125.00
2023-04-09T01:40:01.464Z,7086.00
2023-04-09T01:41:01.527Z,6999.00
2023-04-09T01:42:01.581Z,6925.00
2023-04-09T01:43:01.631Z,6883.00
2023-04-09T01:44:01.688Z,6806.00
2023-04-09T01:45:01.720Z,6760.00
2023-04-09T01:46:01.736Z,6778.00
2023-04-09T01:47:01.707Z,6835.00
2023-04-09T01:48:01.771Z,6977.00
2023-04-09T01:49:01.738Z,7016.00
2023-04-09T01:50:01.733Z,6953.00
2023-04-09T01:51:01.754Z,6828.00
2023-04-09T01:52:01.775Z,6644.00
2023-04-09T01:53:01.770Z,6573.00
2023-04-09T01:54:01.819Z,6535.00
2023-04-09T01:55:01.834Z,6533.00
2023-04-09T01:56:01.961Z,6596.00
2023-04-09T01:57:01.833Z,6624.00
2023-04-09T01:58:01.856Z,6613.00
2023-04-09T01:59:01.857Z,6600.00
2023-04-09T02:00:01.874Z,6632.00
2023-04-09T02:01:01.884Z,6746.00
2023-04-09T02:02:01.917Z,6865.00
2023-04-09T02:03:01.987Z,6863.00
2023-04-09T02:04:02.001Z,6863.00
2023-04-09T02:05:01.910Z,6755.00
2023-04-09T02:06:01.953Z,6725.00
2023-04-09T02:07:01.922Z,6670.00
2023-04-09T02:08:01.978Z,6637.00
2023-04-09T02:09:01.955Z,6647.00
2023-04-09T02:10:01.963Z,6629.00
2023-04-09T02:11:01.969Z,6580.00
2023-04-09T02:12:01.985Z,6558.00
2023-04-09T02:13:02.003Z,6583.00
2023-04-09T02:14:02.037Z,6611.00
2023-04-09T02:15:02.068Z,6566.00
2023-04-09T02:16:02.452Z,6524.00
2023-04-09T02:17:02.161Z,6543.00
2023-04-09T02:18:02.200Z,6600.00
2023-04-09T02:19:02.172Z,6681.00
2023-04-09T02:20:02.214Z,6736.00
2023-04-09T02:21:02.285Z,6736.00
2023-04-09T02:22:02.286Z,6725.00
2023-04-09T02:23:02.290Z,6693.00
2023-04-09T02:24:02.325Z,6676.00
2023-04-09T02:25:02.376Z,6651.00
2023-04-09T02:26:02.409Z,6671.00
2023-04-09T02:27:02.460Z,6669.00
2023-04-09T02:28:02.478Z,6704.00
2023-04-09T02:29:02.532Z,6737.00
2023-04-09T02:30:02.579Z,6788.00
2023-04-09T02:31:02.661Z,6747.00
2023-04-09T02:32:02.686Z,6713.00
2023-04-09T02:33:02.763Z,6712.00
2023-04-09T02:34:02.766Z,6668.00
2023-04-09T02:35:02.831Z,6647.00
2023-04-09T02:36:03.014Z,6750.00
2023-04-09T02:37:02.948Z,6873.00
2023-04-09T02:38:02.992Z,6908.00
2023-04-09T02:39:03.045Z,6881.00
2023-04-09T02:40:03.108Z,6864.00
2023-04-09T02:41:03.230Z,6825.00
2023-04-09T02:42:03.169Z,6874.00
2023-04-09T02:43:03.227Z,6814.00
2023-04-09T02:44:03.259Z,6726.00
2023-04-09T02:45:03.323Z,6659.00
2023-04-09T02:46:03.412Z,6604.00
2023-04-09T02:47:03.421Z,6535.00
2023-04-09T02:48:03.452Z,6467.00
2023-04-09T02:49:03.506Z,6378.00
2023-04-09T02:50:03.517Z,6327.00
2023-04-09T02:51:03.536Z,6288.00
2023-04-09T02:52:03.568Z,6231.00
2023-04-09T02:53:03.626Z,6244.00
2023-04-09T02:54:03.646Z,6249.00
2023-04-09T02:55:03.691Z,6264.00
2023-04-09T02:56:03.737Z,6229.00
2023-04-09T02:57:03.760Z,6127.00
2023-04-09T02:58:03.829Z,5948.00
2023-04-09T02:59:03.813Z,5850.00
2023-04-09T03:00:03.878Z,5764.00
2023-04-09T03:01:03.886Z,5694.00
2023-04-09T03:02:04.037Z,5605.00
2023-04-09T03:03:04.091Z,5520.00
2023-04-09T03:04:04.146Z,5442.00
2023-04-09T03:05:04.016Z,5363.00
2023-04-09T03:06:04.030Z,5314.00
2023-04-09T03:07:04.061Z,5298.00
2023-04-09T03:08:04.090Z,5294.00
2023-04-09T03:09:04.130Z,5288.00
2023-04-09T03:10:04.154Z,5237.00
2023-04-09T03:11:04.183Z,5453.00
2023-04-09T03:12:04.221Z,5814.00
2023-04-09T03:13:04.245Z,6058.00
2023-04-09T03:14:04.310Z,6227.00
2023-04-09T03:15:04.359Z,6195.00
2023-04-09T03:16:04.377Z,6164.00
2023-04-09T03:17:04.430Z,6254.00
2023-04-09T03:18:04.493Z,6343.00
2023-04-09T03:19:04.527Z,6396.00
2023-04-09T03:20:04.595Z,6397.00
2023-04-09T03:21:04.630Z,6354.00
2023-04-09T03:22:04.692Z,6346.00
2023-04-09T03:23:04.765Z,6308.00
2023-04-09T03:24:04.838Z,6283.00
2023-04-09T03:25:04.885Z,6328.00
2023-04-09T03:26:04.973Z,6280.00
2023-04-09T03:27:04.996Z,6235.00
2023-04-09T03:28:05.065Z,6206.00
2023-04-09T03:29:05.126Z,6238.00
2023-04-09T03:30:05.196Z,6243.00
2023-04-09T03:31:05.287Z,6229.00
2023-04-09T03:32:05.299Z,6223.00
2023-04-09T03:33:05.389Z,6202.00
2023-04-09T03:34:05.419Z,6201.00
2023-04-09T03:35:05.452Z,6192.00
2023-04-09T03:36:05.538Z,6219.00
2023-04-09T03:37:05.554Z,6259.00
2023-04-09T03:38:05.612Z,6329.00
2023-04-09T03:39:05.649Z,6326.00
2023-04-09T03:40:05.684Z,6339.00
2023-04-09T03:41:05.735Z,6311.00
2023-04-09T03:42:05.747Z,6313.00
2023-04-09T03:43:05.774Z,6308.00
2023-04-09T03:44:05.848Z,6259.00
2023-04-09T03:45:05.860Z,6134.00
2023-04-09T03:46:05.917Z,5998.00
2023-04-09T03:47:05.968Z,5954.00
2023-04-09T03:48:06.020Z,5947.00
2023-04-09T03:49:06.050Z,5981.00
2023-04-09T03:50:06.112Z,5963.00
2023-04-09T03:51:06.142Z,5906.00
2023-04-09T03:52:06.170Z,5866.00
2023-04-09T03:53:06.235Z,5840.00
2023-04-09T03:54:06.252Z,5779.00
2023-04-09T03:55:06.305Z,5769.00
2023-04-09T03:56:06.355Z,5806.00
2023-04-09T03:57:06.375Z,5810.00
2023-04-09T03:58:06.417Z,5801.00
2023-04-09T03:59:06.493Z,5762.00
2023-04-09T04:00:06.514Z,5744.00
2023-04-09T04:01:06.571Z,5753.00
2023-04-09T04:02:06.672Z,5801.00
2023-04-09T04:03:06.794Z,5799.00
2023-04-09T04:04:06.688Z,5771.00
2023-04-09T04:05:06.693Z,5763.00
2023-04-09T04:06:06.748Z,5791.00
2023-04-09T04:07:06.771Z,5871.00
2023-04-09T04:08:06.808Z,5961.00
2023-04-09T04:09:06.847Z,5990.00
2023-04-09T04:10:06.904Z,5966.00
2023-04-09T04:11:06.936Z,5916.00
2023-04-09T04:12:06.965Z,5859.00
2023-04-09T04:13:07.000Z,5843.00
2023-04-09T04:14:07.007Z,5889.00
2023-04-09T04:15:07.044Z,5978.00
2023-04-09T04:16:07.231Z,5985.00
2023-04-09T04:17:07.093Z,6012.00
2023-04-09T04:18:07.117Z,5984.00
2023-04-09T04:19:07.148Z,5808.00
2023-04-09T04:20:07.177Z,5669.00
2023-04-09T04:21:07.248Z,5605.00
2023-04-09T04:22:07.277Z,5548.00
2023-04-09T04:23:07.303Z,5518.00
2023-04-09T04:24:07.309Z,5552.00
2023-04-09T04:25:07.349Z,5611.00
2023-04-09T04:26:07.380Z,5660.00
2023-04-09T04:27:07.401Z,5673.00
2023-04-09T04:28:07.428Z,5669.00
2023-04-09T04:29:07.475Z,5701.00
2023-04-09T04:30:07.504Z,5717.00
2023-04-09T04:31:07.537Z,5727.00
2023-04-09T04:32:07.572Z,5672.00
2023-04-09T04:33:07.586Z,5635.00
2023-04-09T04:34:07.611Z,5644.00
2023-04-09T04:35:07.612Z,5664.00
2023-04-09T04:36:07.645Z,5697.00
2023-04-09T04:37:07.701Z,5726.00
2023-04-09T04:38:07.755Z,5785.00
2023-04-09T04:39:07.773Z,5873.00
2023-04-09T04:40:07.805Z,5902.00
2023-04-09T04:41:07.859Z,5886.00
2023-04-09T04:42:07.883Z,5895.00
2023-04-09T04:43:07.924Z,5948.00
2023-04-09T04:44:07.987Z,5899.00
2023-04-09T04:45:08.021Z,5880.00
2023-04-09T04:46:08.072Z,5890.00
2023-04-09T04:47:08.130Z,5878.00
2023-04-09T04:48:08.151Z,5844.00
2023-04-09T04:49:08.223Z,5785.00
2023-04-09T04:50:08.253Z,5738.00
2023-04-09T04:51:08.331Z,5722.00
2023-04-09T04:52:08.355Z,5737.00
2023-04-09T04:53:08.418Z,5748.00
2023-04-09T04:54:08.468Z,5790.00
2023-04-09T04:55:08.534Z,5779.00
2023-04-09T04:56:08.568Z,5757.00
2023-04-09T04:57:08.600Z,5702.00
2023-04-09T04:58:08.665Z,5735.00
2023-04-09T04:59:08.701Z,5709.00
2023-04-09T05:00:08.771Z,5692.00
2023-04-09T05:01:08.818Z,5701.00
2023-04-09T05:02:08.909Z,5714.00
2023-04-09T05:03:08.915Z,5734.00
2023-04-09T05:04:08.969Z,5705.00
2023-04-09T05:05:08.928Z,5726.00
2023-04-09T05:06:08.967Z,5796.00
2023-04-09T05:07:09.016Z,5829.00
2023-04-09T05:08:09.030Z,5844.00
2023-04-09T05:09:09.079Z,5794.00
2023-04-09T05:10:09.094Z,5784.00
2023-04-09T05:11:09.135Z,5818.00
2023-04-09T05:12:09.167Z,5862.00
2023-04-09T05:13:09.184Z,5818.00
2023-04-09T05:14:09.227Z,5814.00
2023-04-09T05:15:09.276Z,5781.00
2023-04-09T05:16:09.327Z,5754.00
2023-04-09T05:17:09.317Z,5798.00
2023-04-09T05:18:09.327Z,5884.00
2023-04-09T05:19:09.356Z,5943.00
2023-04-09T05:20:09.407Z,6034.00
2023-04-09T05:21:09.411Z,6120.00
2023-04-09T05:22:09.432Z,6190.00
2023-04-09T05:23:09.460Z,6220.00
2023-04-09T05:24:09.510Z,6248.00
2023-04-09T05:25:09.515Z,6261.00
2023-04-09T05:26:09.531Z,6377.00
2023-04-09T05:27:09.576Z,6560.00
2023-04-09T05:28:09.544Z,6695.00
2023-04-09T05:29:09.605Z,6777.00
2023-04-09T05:30:09.575Z,6804.00
2023-04-09T05:31:09.631Z,6848.00
2023-04-09T05:32:09.634Z,6838.00
2023-04-09T05:33:09.649Z,6752.00
2023-04-09T05:34:09.659Z,6594.00
2023-04-09T05:35:09.673Z,6450.00
2023-04-09T05:36:09.709Z,6319.00
2023-04-09T05:37:09.792Z,6224.00
2023-04-09T05:38:09.799Z,6181.00
2023-04-09T05:39:09.823Z,6104.00
2023-04-09T05:40:09.857Z,6038.00
2023-04-09T05:41:09.877Z,6006.00
2023-04-09T05:42:09.898Z,5974.00
2023-04-09T05:43:09.901Z,5910.00
2023-04-09T05:44:09.934Z,5930.00
2023-04-09T05:45:09.937Z,6015.00
2023-04-09T05:46:09.968Z,6023.00
2023-04-09T05:47:09.959Z,6036.00
2023-04-09T05:48:09.985Z,6052.00
2023-04-09T05:49:09.993Z,6074.00
2023-04-09T05:50:10.012Z,6090.00
2023-04-09T05:51:10.015Z,6133.00
2023-04-09T05:52:10.026Z,6200.00
2023-04-09T05:53:10.027Z,6222.00
2023-04-09T05:54:10.030Z,6161.00
2023-04-09T05:55:10.054Z,6042.00
2023-04-09T05:56:10.040Z,5963.00
2023-04-09T05:57:10.079Z,5876.00
2023-04-09T05:58:10.079Z,5858.00
2023-04-09T05:59:10.087Z,5891.00
2023-04-09T06:00:10.089Z,5901.00
2023-04-09T06:01:10.097Z,5910.00
2023-04-09T06:02:10.178Z,5908.00
2023-04-09T06:03:10.206Z,5848.00
2023-04-09T06:04:10.259Z,5717.00
2023-04-09T06:05:10.204Z,5686.00
2023-04-09T06:06:10.118Z,5670.00
2023-04-09T06:07:10.163Z,5675.00
2023-04-09T06:08:10.224Z,5704.00
2023-04-09T06:09:10.264Z,5685.00
2023-04-09T06:10:10.255Z,5697.00
2023-04-09T06:11:10.289Z,5762.00
2023-04-09T06:12:10.273Z,5807.00
2023-04-09T06:13:10.279Z,5775.00
2023-04-09T06:14:10.287Z,5761.00
2023-04-09T06:15:10.311Z,5769.00
2023-04-09T06:16:10.392Z,5801.00
2023-04-09T06:17:10.317Z,5815.00
2023-04-09T06:18:10.370Z,5761.00
2023-04-09T06:19:10.352Z,5742.00
2023-04-09T06:20:10.373Z,5754.00
2023-04-09T06:21:10.370Z,5797.00
2023-04-09T06:22:10.390Z,5799.00
2023-04-09T06:23:10.387Z,5801.00
2023-04-09T06:24:10.408Z,5802.00
2023-04-09T06:25:10.409Z,5837.00
2023-04-09T06:26:10.421Z,5902.00
2023-04-09T06:27:10.398Z,5966.00
2023-04-09T06:28:10.436Z,5983.00
2023-04-09T06:29:10.432Z,6019.00
2023-04-09T06:30:10.452Z,6035.00
2023-04-09T06:31:10.618Z,6049.00
2023-04-09T06:32:10.554Z,6142.00
2023-04-09T06:33:10.671Z,6344.00
2023-04-09T06:34:10.678Z,6571.00
2023-04-09T06:35:11.076Z,6579.00
2023-04-09T06:36:10.862Z,6526.00
2023-04-09T06:37:10.836Z,6459.00
2023-04-09T06:38:10.907Z,6303.00
2023-04-09T06:39:10.963Z,6236.00
2023-04-09T06:40:11.033Z,6207.00
2023-04-09T06:41:11.075Z,6084.00
2023-04-09T06:42:11.149Z,6041.00
2023-04-09T06:43:11.203Z,5957.00
2023-04-09T06:44:11.245Z,5841.00
2023-04-09T06:45:11.311Z,5825.00
2023-04-09T06:46:11.359Z,5855.00
2023-04-09T06:47:11.405Z,5844.00
2023-04-09T06:48:11.448Z,5862.00
2023-04-09T06:49:11.514Z,5908.00
2023-04-09T06:50:11.598Z,5922.00
2023-04-09T06:51:11.609Z,5917.00
2023-04-09T06:52:11.663Z,5909.00
2023-04-09T06:53:11.757Z,5867.00
2023-04-09T06:54:11.787Z,5852.00
2023-04-09T06:55:11.826Z,5840.00
2023-04-09T06:56:11.859Z,5867.00
2023-04-09T06:57:11.947Z,5784.00
2023-04-09T06:58:11.964Z,5776.00
2023-04-09T06:59:12.032Z,5624.00
2023-04-09T07:00:12.069Z,5426.00
2023-04-09T07:01:12.122Z,5367.00
2023-04-09T07:02:12.242Z,5312.00
2023-04-09T07:03:12.271Z,5249.00
2023-04-09T07:04:12.345Z,5236.00
2023-04-09T07:05:12.307Z,5289.00
2023-04-09T07:06:12.335Z,5459.00
2023-04-09T07:07:12.371Z,5669.00
2023-04-09T07:08:12.399Z,5770.00
2023-04-09T07:09:12.468Z,5762.00
2023-04-09T07:10:12.473Z,5641.00
2023-04-09T07:11:12.484Z,5397.00
2023-04-09T07:12:12.536Z,5338.00
2023-04-09T07:13:12.557Z,5427.00
2023-04-09T07:14:12.598Z,5377.00
2023-04-09T07:15:12.615Z,5194.00
2023-04-09T07:16:12.688Z,5080.00
2023-04-09T07:17:12.699Z,4868.00
2023-04-09T07:18:12.773Z,4793.00
2023-04-09T07:19:12.807Z,4788.00
2023-04-09T07:20:12.820Z,4787.00
2023-04-09T07:21:12.845Z,4825.00
2023-04-09T07:22:12.854Z,4828.00
2023-04-09T07:23:12.917Z,4897.00
2023-04-09T07:24:12.943Z,4893.00
2023-04-09T07:25:12.923Z,4792.00
2023-04-09T07:26:12.937Z,4787.00
2023-04-09T07:27:12.951Z,4823.00
2023-04-09T07:28:13.002Z,4850.00
2023-04-09T07:29:12.994Z,4953.00
2023-04-09T07:30:12.992Z,5071.00
2023-04-09T07:31:13.023Z,5081.00
2023-04-09T07:32:12.999Z,4890.00
2023-04-09T07:33:13.028Z,4525.00
2023-04-09T07:34:13.010Z,4327.00
2023-04-09T07:35:13.009Z,4178.00
2023-04-09T07:36:13.136Z,4162.00
2023-04-09T07:37:13.032Z,4244.00
2023-04-09T07:38:13.029Z,4213.00
2023-04-09T07:39:13.098Z,4298.00
2023-04-09T07:40:13.053Z,4271.00
2023-04-09T07:41:13.021Z,4244.00
2023-04-09T07:42:13.021Z,4415.00
2023-04-09T07:43:13.008Z,4685.00
2023-04-09T07:44:13.065Z,4798.00
2023-04-09T07:45:13.034Z,4757.00
2023-04-09T07:46:13.111Z,4650.00
2023-04-09T07:47:13.131Z,4522.00
2023-04-09T07:48:13.177Z,4305.00
2023-04-09T07:49:13.212Z,4061.00
2023-04-09T07:50:13.198Z,3878.00
2023-04-09T07:51:13.248Z,3827.00
2023-04-09T07:52:13.252Z,3760.00
2023-04-09T07:53:13.280Z,3779.00
2023-04-09T07:54:13.307Z,3906.00
2023-04-09T07:55:13.325Z,4058.00
2023-04-09T07:56:13.356Z,4262.00
2023-04-09T07:57:13.398Z,4396.00
2023-04-09T07:58:13.466Z,4361.00
2023-04-09T07:59:13.533Z,4243.00
2023-04-09T08:00:13.553Z,4193.00
2023-04-09T08:01:13.598Z,3986.00
2023-04-09T08:02:15.369Z,3846.00
2023-04-09T08:03:14.040Z,3681.00
2023-04-09T08:04:13.960Z,3659.00
2023-04-09T08:05:13.855Z,3646.00
2023-04-09T08:06:13.871Z,3676.00
2023-04-09T08:07:13.939Z,3729.00
2023-04-09T08:08:13.990Z,3749.00
2023-04-09T08:09:14.047Z,3677.00
2023-04-09T08:10:14.026Z,3579.00
2023-04-09T08:11:14.066Z,3490.00
2023-04-09T08:12:14.090Z,3495.00
2023-04-09T08:13:14.132Z,3551.00
2023-04-09T08:14:14.177Z,3652.00
2023-04-09T08:15:14.182Z,3589.00
2023-04-09T08:16:14.264Z,3463.00
2023-04-09T08:17:14.218Z,3331.00
2023-04-09T08:18:14.249Z,3297.00
2023-04-09T08:19:14.254Z,3262.00
2023-04-09T08:20:14.247Z,3266.00
2023-04-09T08:21:14.256Z,3196.00
2023-04-09T08:22:14.286Z,3162.00
2023-04-09T08:23:14.300Z,3028.00
2023-04-09T08:24:14.289Z,2955.00
2023-04-09T08:25:14.367Z,2884.00
2023-04-09T08:26:14.364Z,2746.00
2023-04-09T08:27:14.366Z,2707.00
2023-04-09T08:28:14.372Z,2691.00
2023-04-09T08:29:14.384Z,2720.00
2023-04-09T08:30:15.121Z,2756.00
2023-04-09T08:31:14.426Z,2731.00
2023-04-09T08:32:14.418Z,2623.00
2023-04-09T08:33:14.399Z,2601.00
2023-04-09T08:34:14.405Z,2461.00
2023-04-09T08:35:14.411Z,2401.00
2023-04-09T08:36:14.446Z,2455.00
2023-04-09T08:37:14.423Z,2576.00
2023-04-09T08:38:14.396Z,2683.00
2023-04-09T08:39:14.410Z,2662.00
2023-04-09T08:40:14.472Z,2397.00
2023-04-09T08:41:15.104Z,2212.00
2023-04-09T08:42:14.601Z,1929.00
2023-04-09T08:43:14.690Z,1852.00
2023-04-09T08:44:14.738Z,1850.00
2023-04-09T08:45:14.818Z,2050.00
2023-04-09T08:46:14.885Z,2233.00
2023-04-09T08:47:14.947Z,2230.00
2023-04-09T08:48:15.155Z,2339.00
2023-04-09T08:49:15.075Z,2417.00
2023-04-09T08:50:15.131Z,2536.00
2023-04-09T08:51:15.199Z,2518.00
2023-04-09T08:52:15.264Z,2578.00
2023-04-09T08:53:15.332Z,2781.00
2023-04-09T08:54:15.395Z,2864.00
2023-04-09T08:55:15.439Z,2908.00
2023-04-09T08:56:15.520Z,2974.00
2023-04-09T08:57:15.554Z,2903.00
2023-04-09T08:58:15.597Z,2722.00
2023-04-09T08:59:15.642Z,2735.00
2023-04-09T09:00:15.697Z,2744.00
2023-04-09T09:01:15.738Z,2703.00
2023-04-09T09:02:15.809Z,2602.00
2023-04-09T09:03:15.913Z,2583.00
2023-04-09T09:04:15.910Z,2608.00
2023-04-09T09:05:15.934Z,2679.00
2023-04-09T09:06:15.994Z,2721.00
2023-04-09T09:07:16.075Z,2583.00
2023-04-09T09:08:16.120Z,2417.00
2023-04-09T09:09:16.167Z,2222.00
2023-04-09T09:10:16.234Z,1870.00
2023-04-09T09:11:16.251Z,1576.00
2023-04-09T09:12:16.264Z,1488.00
2023-04-09T09:13:16.303Z,1422.00
2023-04-09T09:14:16.377Z,1194.00
2023-04-09T09:15:16.357Z,1124.00
2023-04-09T09:16:16.470Z,1219.00
2023-04-09T09:17:16.430Z,1209.00
2023-04-09T09:18:16.481Z,1024.00
2023-04-09T09:19:16.506Z,1023.00
2023-04-09T09:20:16.561Z,1152.00
2023-04-09T09:21:16.587Z,1285.00
2023-04-09T09:22:16.576Z,1336.00
2023-04-09T09:23:16.579Z,1369.00
2023-04-09T09:24:16.610Z,1352.00
2023-04-09T09:25:16.625Z,1181.00
2023-04-09T09:26:16.678Z,1181.00
2023-04-09T09:27:16.606Z,1278.00
2023-04-09T09:28:16.617Z,1458.00
2023-04-09T09:29:16.631Z,1601.00
2023-04-09T09:30:16.639Z,1705.00
2023-04-09T09:31:16.658Z,1766.00
2023-04-09T09:32:16.647Z,1930.00
2023-04-09T09:33:16.664Z,2022.00
2023-04-09T09:34:16.712Z,2050.00
2023-04-09T09:35:16.735Z,2093.00
2023-04-09T09:36:16.756Z,1913.00
2023-04-09T09:37:16.771Z,1743.00
2023-04-09T09:38:16.801Z,1383.00
2023-04-09T09:39:16.824Z,1113.00
2023-04-09T09:40:16.849Z,871.00
2023-04-09T09:41:16.864Z,750.00
2023-04-09T09:42:16.931Z,790.00
2023-04-09T09:43:16.885Z,864.00
2023-04-09T09:44:16.900Z,859.00
2023-04-09T09:45:16.900Z,758.00
2023-04-09T09:46:16.952Z,624.00
2023-04-09T09:47:16.905Z,540.00
2023-04-09T09:48:16.916Z,501.00
2023-04-09T09:49:16.916Z,401.00
2023-04-09T09:50:17.020Z,400.00
2023-04-09T09:51:16.923Z,400.00
2023-04-09T09:52:16.936Z,447.00
2023-04-09T09:53:16.931Z,476.00
2023-04-09T09:54:16.921Z,513.00
2023-04-09T09:55:16.924Z,534.00
2023-04-09T09:56:16.937Z,572.00
2023-04-09T09:57:17.075Z,601.00
2023-04-09T09:58:16.950Z,574.00
2023-04-09T09:59:16.982Z,491.00
2023-04-09T10:00:18.627Z,501.00
2023-04-09T10:01:17.149Z,514.00
2023-04-09T10:02:17.279Z,503.00
2023-04-09T10:03:17.239Z,496.00
2023-04-09T10:04:17.285Z,512.00
2023-04-09T10:05:17.324Z,514.00
2023-04-09T10:06:17.378Z,501.00
2023-04-09T10:07:17.427Z,506.00
2023-04-09T10:08:17.437Z,525.00
2023-04-09T10:09:17.452Z,572.00
2023-04-09T10:10:17.476Z,593.00
2023-04-09T10:11:17.524Z,608.00
2023-04-09T10:12:17.579Z,593.00
2023-04-09T10:13:17.603Z,558.00
2023-04-09T10:14:17.654Z,500.00
2023-04-09T10:15:17.724Z,500.00
2023-04-09T10:16:17.831Z,520.00
2023-04-09T10:17:17.836Z,500.00
2023-04-09T10:18:17.863Z,485.00
2023-04-09T10:19:17.893Z,474.00
2023-04-09T10:20:17.936Z,459.00
2023-04-09T10:21:17.982Z,501.00
2023-04-09T10:22:18.040Z,500.00
2023-04-09T10:23:18.124Z,521.00
2023-04-09T10:24:18.193Z,543.00
2023-04-09T10:25:18.184Z,493.00
2023-04-09T10:26:18.227Z,485.00
2023-04-09T10:27:18.270Z,463.00
2023-04-09T10:28:18.328Z,457.00
2023-04-09T10:29:18.367Z,422.00
2023-04-09T10:30:18.419Z,413.00
2023-04-09T10:31:18.479Z,444.00
2023-04-09T10:32:18.472Z,488.00
2023-04-09T10:33:18.526Z,496.00
2023-04-09T10:34:18.547Z,466.00
2023-04-09T10:35:18.594Z,508.00
2023-04-09T10:36:18.653Z,502.00
2023-04-09T10:37:18.662Z,496.00
2023-04-09T10:38:18.700Z,498.00
2023-04-09T10:39:18.733Z,523.00
2023-04-09T10:40:18.756Z,573.00
2023-04-09T10:41:18.767Z,741.00
2023-04-09T10:42:18.803Z,616.00
2023-04-09T10:43:18.869Z,464.00
2023-04-09T10:44:18.941Z,443.00
2023-04-09T10:45:20.639Z,506.00
2023-04-09T10:46:18.940Z,500.00
2023-04-09T10:47:18.906Z,500.00
2023-04-09T10:48:18.878Z,480.00
2023-04-09T10:49:18.894Z,500.00
2023-04-09T10:50:18.905Z,505.00
2023-04-09T10:51:18.893Z,523.00
2023-04-09T10:52:18.964Z,529.00
2023-04-09T10:53:18.867Z,482.00
2023-04-09T10:54:18.866Z,493.00
2023-04-09T10:55:18.889Z,573.00
2023-04-09T10:56:18.846Z,573.00
2023-04-09T10:57:18.914Z,579.00
2023-04-09T10:58:18.832Z,537.00
2023-04-09T10:59:18.822Z,504.00
2023-04-09T11:00:18.857Z,518.00
2023-04-09T11:01:18.852Z,596.00
2023-04-09T11:02:18.856Z,614.00
2023-04-09T11:03:18.941Z,571.00
2023-04-09T11:04:18.818Z,546.00
2023-04-09T11:05:18.784Z,536.00
2023-04-09T11:06:18.789Z,500.00
2023-04-09T11:07:18.777Z,489.00
2023-04-09T11:08:18.772Z,560.00
2023-04-09T11:09:18.787Z,571.00
2023-04-09T11:10:18.766Z,563.00
2023-04-09T11:11:18.745Z,535.00
2023-04-09T11:12:18.761Z,520.00
2023-04-09T11:13:18.719Z,520.00
2023-04-09T11:14:18.707Z,495.00
2023-04-09T11:15:18.738Z,444.00
2023-04-09T11:16:22.833Z,454.00
2023-04-09T11:17:19.700Z,455.00
2023-04-09T11:18:18.677Z,473.00
2023-04-09T11:19:18.694Z,509.00
2023-04-09T11:20:18.666Z,577.00
2023-04-09T11:21:18.692Z,631.00
2023-04-09T11:22:18.745Z,593.00
2023-04-09T11:23:18.664Z,619.00
2023-04-09T11:24:18.648Z,753.00
2023-04-09T11:25:18.649Z,904.00
2023-04-09T11:26:18.627Z,922.00
2023-04-09T11:27:18.657Z,962.00
2023-04-09T11:28:18.730Z,820.00
2023-04-09T11:29:18.790Z,682.00
2023-04-09T11:30:18.852Z,699.00
2023-04-09T11:31:18.910Z,633.00
2023-04-09T11:32:18.946Z,862.00
2023-04-09T11:33:20.257Z,1129.00
2023-04-09T11:34:18.981Z,1188.00
2023-04-09T11:35:19.019Z,1215.00
2023-04-09T11:36:19.103Z,1199.00
2023-04-09T11:37:19.082Z,1162.00
2023-04-09T11:38:19.095Z,1038.00
2023-04-09T11:39:19.149Z,912.00
2023-04-09T11:40:19.170Z,852.00
2023-04-09T11:41:19.184Z,770.00
2023-04-09T11:42:19.221Z,796.00
2023-04-09T11:43:19.261Z,1122.00
2023-04-09T11:44:20.052Z,1136.00
2023-04-09T11:45:19.304Z,1227.00
2023-04-09T11:46:19.352Z,1452.00
2023-04-09T11:47:19.445Z,1204.00
2023-04-09T11:48:19.405Z,649.00
2023-04-09T11:49:19.412Z,534.00
2023-04-09T11:50:19.445Z,500.00
2023-04-09T11:51:19.478Z,518.00
2023-04-09T11:52:19.487Z,563.00
2023-04-09T11:53:19.521Z,562.00
2023-04-09T11:54:19.557Z,587.00
2023-04-09T11:55:19.603Z,677.00
2023-04-09T11:56:19.644Z,747.00
2023-04-09T11:57:19.674Z,672.00
2023-04-09T11:58:19.692Z,691.00
2023-04-09T11:59:19.723Z,664.00
2023-04-09T12:00:19.785Z,659.00
2023-04-09T12:01:19.808Z,586.00
2023-04-09T12:02:19.981Z,480.00
2023-04-09T12:03:20.099Z,502.00
2023-04-09T12:04:20.132Z,476.00
2023-04-09T12:05:20.036Z,451.00
2023-04-09T12:06:20.033Z,500.00
2023-04-09T12:07:20.066Z,494.00
2023-04-09T12:08:20.107Z,502.00
2023-04-09T12:09:20.140Z,584.00
2023-04-09T12:10:20.170Z,664.00
2023-04-09T12:11:20.223Z,662.00